Terminal Aerodrome Forecast
Issued by NWS

Home | Current Version | Previous Version | Text Only | Print | Product List | Glossary On
Versions: 1 2 3 4 5 6 7 8 9 10 11 12 13 14 15 16 17
000
FTUS42 KMHX 191000 AAB
TAFPGV
TAF AMD
KPGV 191046Z 1911/2006 00000KT 1SM BR VV007
      TEMPO 1911/1912 P6SM NSW BKN080
     FM191200 03004KT P6SM SCT250
      AMD LTD TO CLD VIS AND WIND=

USA.gov is the U.S. government's official web portal to all federal, state and local government web resources and services.